Time;durP1;ratioP1;P1;durP2;ratioP2;P2;SDS_P1;SDS_P2;PMS_P1;PMS_P2;Temp;Humidity;BMP_temperature;BMP_pressure;BME280_temperature;BME280_humidity;BME280_pressure;Samples;Min_cycle;Max_cycle;Signal;HPM_P1;HPM_P2
2021/10/24 00:01:22;;;;;;;6.83;2.10;;;8.10;62.20;;;;;;5009690;28;20125;-86
2021/10/24 00:03:48;;;;;;;6.07;2.73;;;8.10;62.10;;;;;;5009891;28;20037;-85
2021/10/24 00:06:14;;;;;;;4.60;2.23;;;8.10;62.10;;;;;;5016293;28;20083;-85
2021/10/24 00:08:40;;;;;;;7.97;2.80;;;8.00;62.20;;;;;;5011485;28;20029;-86
2021/10/24 00:11:06;;;;;;;3.43;2.23;;;7.90;62.20;;;;;;5011776;28;20025;-86
2021/10/24 00:13:32;;;;;;;6.60;2.73;;;7.80;62.50;;;;;;5009958;28;20026;-87
2021/10/24 00:15:59;;;;;;;5.13;2.73;;;7.80;62.70;;;;;;5011848;28;20033;-86
2021/10/24 00:18:26;;;;;;;4.67;2.43;;;7.80;62.70;;;;;;5027031;28;20491;-85
2021/10/24 00:20:56;;;;;;;5.30;2.77;;;7.70;62.80;;;;;;5009868;28;20413;-86
2021/10/24 00:23:22;;;;;;;3.50;2.20;;;7.70;62.90;;;;;;5011844;28;20042;-85
2021/10/24 00:25:48;;;;;;;4.17;2.30;;;7.70;63.10;;;;;;5006810;28;20062;-86
2021/10/24 00:28:14;;;;;;;5.63;2.03;;;7.70;62.90;;;;;;5008772;28;20443;-85
2021/10/24 00:30:40;;;;;;;4.13;1.90;;;7.70;62.70;;;;;;5018382;28;20117;-85
2021/10/24 00:33:06;;;;;;;5.60;2.63;;;7.70;62.50;;;;;;5003944;28;20030;-85
2021/10/24 00:35:32;;;;;;;4.07;2.27;;;7.80;62.40;;;;;;5000974;28;20022;-85
2021/10/24 00:37:59;;;;;;;7.07;2.27;;;7.80;62.40;;;;;;5011328;28;20122;-84
2021/10/24 00:40:25;;;;;;;5.47;2.93;;;7.80;62.40;;;;;;5012299;28;20464;-84
2021/10/24 00:42:53;;;;;;;4.20;2.43;;;7.80;62.50;;;;;;5001408;28;20029;-85
2021/10/24 00:45:20;;;;;;;5.27;2.77;;;7.70;62.70;;;;;;5009776;28;20048;-85
2021/10/24 00:47:46;;;;;;;3.80;2.03;;;7.60;62.70;;;;;;5010512;28;20033;-85
2021/10/24 00:50:13;;;;;;;3.20;2.37;;;7.60;63.00;;;;;;5025454;28;20030;-85
2021/10/24 00:52:40;;;;;;;4.97;2.47;;;7.50;63.10;;;;;;5009113;28;20030;-85
2021/10/24 00:55:07;;;;;;;3.37;1.60;;;7.40;63.30;;;;;;4999878;28;20026;-85
2021/10/24 00:57:34;;;;;;;4.50;2.40;;;7.40;63.20;;;;;;5010729;28;20113;-85
2021/10/24 01:00:05;;;;;;;3.40;1.63;;;7.50;63.40;;;;;;5008279;28;20022;-86
2021/10/24 01:02:30;;;;;;;4.63;2.10;;;7.50;63.20;;;;;;5001803;28;20050;-86
2021/10/24 01:04:56;;;;;;;3.97;2.00;;;7.50;63.10;;;;;;5008333;28;20076;-85
2021/10/24 01:07:23;;;;;;;3.97;1.87;;;7.50;63.10;;;;;;5011828;28;20036;-85
2021/10/24 01:09:49;;;;;;;4.30;2.20;;;7.50;63.00;;;;;;5010415;28;20440;-85
2021/10/24 01:12:16;;;;;;;3.63;2.20;;;7.60;63.10;;;;;;5011873;28;20034;-85
2021/10/24 01:14:41;;;;;;;3.73;2.10;;;7.50;63.10;;;;;;5010261;28;20592;-85
2021/10/24 01:17:07;;;;;;;4.83;2.43;;;7.60;63.30;;;;;;5009798;28;20038;-86
2021/10/24 01:19:33;;;;;;;4.20;2.30;;;7.50;63.20;;;;;;5009983;28;20084;-85
2021/10/24 01:21:59;;;;;;;4.60;2.10;;;7.60;63.30;;;;;;5008979;28;20076;-86
2021/10/24 01:24:24;;;;;;;5.27;1.97;;;7.60;63.10;;;;;;5013142;28;20106;-85
2021/10/24 01:26:50;;;;;;;5.17;2.20;;;7.50;63.10;;;;;;5015432;28;20037;-85
2021/10/24 01:29:16;;;;;;;2.57;1.50;;;7.50;63.40;;;;;;5015153;28;20054;-85
2021/10/24 01:31:42;;;;;;;4.67;2.10;;;7.50;63.50;;;;;;5012844;28;20072;-84
2021/10/24 01:34:08;;;;;;;4.57;2.10;;;7.60;63.60;;;;;;5019259;28;20080;-85
2021/10/24 01:36:34;;;;;;;9.73;2.07;;;7.60;63.50;;;;;;5012026;28;20030;-85
2021/10/24 01:39:00;;;;;;;3.67;1.60;;;7.60;63.40;;;;;;5014221;28;20041;-85
2021/10/24 01:41:29;;;;;;;3.63;1.77;;;7.50;63.30;;;;;;5015703;28;20068;-85
2021/10/24 01:43:55;;;;;;;3.70;2.20;;;7.50;63.30;;;;;;5014859;28;20026;-85
2021/10/24 01:46:21;;;;;;;5.83;2.33;;;7.40;63.40;;;;;;5011527;28;20444;-85
2021/10/24 01:48:48;;;;;;;3.33;1.80;;;7.40;63.40;;;;;;5013529;28;20084;-85
2021/10/24 01:51:15;;;;;;;3.43;2.10;;;7.40;63.20;;;;;;5015514;28;20038;-84
2021/10/24 01:53:44;;;;;;;3.07;1.77;;;7.40;63.30;;;;;;5013366;28;20041;-85
2021/10/24 01:56:10;;;;;;;3.27;2.10;;;7.30;63.10;;;;;;5015806;28;20469;-84
2021/10/24 01:58:37;;;;;;;3.97;1.57;;;7.30;63.70;;;;;;5015941;28;20111;-84
2021/10/24 02:01:04;;;;;;;5.77;1.90;;;7.30;63.30;;;;;;5014172;28;20038;-84
2021/10/24 02:03:30;;;;;;;4.83;2.20;;;7.30;63.40;;;;;;5011495;28;20034;-84
2021/10/24 02:05:56;;;;;;;6.60;1.83;;;7.30;63.40;;;;;;5011344;28;20044;-84
2021/10/24 02:08:22;;;;;;;6.23;2.63;;;7.20;63.20;;;;;;5004970;28;20030;-85
2021/10/24 02:10:48;;;;;;;4.87;2.20;;;7.20;63.40;;;;;;5012219;28;20127;-85
2021/10/24 02:13:14;;;;;;;5.03;1.83;;;7.20;63.40;;;;;;5012799;28;20026;-84
2021/10/24 02:15:40;;;;;;;3.50;2.40;;;7.20;63.40;;;;;;5010299;28;20041;-84
2021/10/24 02:18:08;;;;;;;7.77;2.53;;;7.20;63.40;;;;;;5011942;28;20083;-87
2021/10/24 02:20:35;;;;;;;4.93;2.23;;;7.10;63.50;;;;;;5012395;28;20022;-85
2021/10/24 02:23:01;;;;;;;4.47;1.80;;;7.10;63.60;;;;;;5012960;28;20033;-85
2021/10/24 02:25:27;;;;;;;6.03;2.50;;;7.00;64.20;;;;;;5023997;28;20022;-84
2021/10/24 02:27:53;;;;;;;4.23;2.50;;;7.00;63.90;;;;;;5011638;28;20042;-84
2021/10/24 02:30:19;;;;;;;7.37;2.33;;;7.00;63.80;;;;;;5016626;28;20051;-83
2021/10/24 02:32:45;;;;;;;4.13;2.23;;;6.90;63.90;;;;;;5051109;28;20068;-84
2021/10/24 02:35:13;;;;;;;5.57;2.47;;;7.00;64.00;;;;;;5046226;28;20392;-83
2021/10/24 02:37:40;;;;;;;5.43;3.00;;;7.00;63.90;;;;;;5035381;28;20040;-83
2021/10/24 02:40:06;;;;;;;7.70;3.70;;;7.10;63.80;;;;;;5035088;28;20120;-83
2021/10/24 02:42:32;;;;;;;6.10;3.20;;;7.10;63.90;;;;;;5037356;28;20115;-83
2021/10/24 02:44:59;;;;;;;8.97;3.60;;;7.10;63.90;;;;;;5034524;28;20151;-84
2021/10/24 02:47:24;;;;;;;4.90;2.70;;;7.10;64.00;;;;;;5052443;28;20415;-83
2021/10/24 02:49:50;;;;;;;10.50;2.90;;;7.00;64.00;;;;;;5034739;28;20039;-83
2021/10/24 02:52:16;;;;;;;8.20;3.03;;;7.00;63.80;;;;;;5037036;28;20033;-85
2021/10/24 02:54:42;;;;;;;4.90;1.90;;;6.90;64.00;;;;;;5052075;28;20127;-85
2021/10/24 02:57:08;;;;;;;7.17;2.10;;;6.80;64.40;;;;;;5035256;28;20037;-84
2021/10/24 02:59:34;;;;;;;4.60;2.20;;;6.80;64.50;;;;;;5035323;28;20446;-84
2021/10/24 03:02:01;;;;;;;4.17;2.27;;;6.80;64.30;;;;;;5051320;28;20495;-85
2021/10/24 03:04:30;;;;;;;7.00;2.37;;;6.80;64.50;;;;;;5034593;28;20518;-84
2021/10/24 03:06:57;;;;;;;6.07;2.73;;;6.80;64.30;;;;;;5032772;28;20409;-84
2021/10/24 03:09:22;;;;;;;3.63;1.77;;;6.80;64.30;;;;;;5035759;28;20246;-85
2021/10/24 03:11:48;;;;;;;4.20;2.10;;;6.70;64.50;;;;;;5038200;28;20033;-85
2021/10/24 03:14:15;;;;;;;4.50;1.87;;;6.70;64.50;;;;;;5060352;28;20029;-84
2021/10/24 03:16:41;;;;;;;4.50;2.07;;;6.70;64.40;;;;;;5035785;28;20067;-84
2021/10/24 03:19:07;;;;;;;4.43;2.37;;;6.70;64.40;;;;;;5040447;28;20032;-84
2021/10/24 03:21:33;;;;;;;5.53;3.10;;;6.60;64.70;;;;;;5041421;28;20121;-84
2021/10/24 03:24:00;;;;;;;5.70;2.43;;;6.60;64.80;;;;;;5035524;28;20037;-84
2021/10/24 03:26:29;;;;;;;7.87;3.30;;;6.60;64.80;;;;;;5042346;28;20026;-84
2021/10/24 03:28:55;;;;;;;6.53;3.23;;;6.70;64.80;;;;;;5048694;28;20033;-84
2021/10/24 03:31:21;;;;;;;12.37;3.50;;;6.60;64.80;;;;;;5033150;28;20057;-84
2021/10/24 03:33:47;;;;;;;4.93;2.40;;;6.60;64.90;;;;;;5035127;28;20116;-84
2021/10/24 03:36:13;;;;;;;4.87;2.43;;;6.60;65.10;;;;;;5035676;28;20029;-84
2021/10/24 03:38:40;;;;;;;6.07;2.33;;;6.60;64.90;;;;;;5034468;28;20040;-83
2021/10/24 03:41:05;;;;;;;5.67;2.90;;;6.70;65.00;;;;;;5042061;28;20047;-84
2021/10/24 03:43:32;;;;;;;6.00;2.80;;;6.60;64.80;;;;;;5032623;28;20391;-85
2021/10/24 03:45:58;;;;;;;6.63;3.33;;;6.60;65.10;;;;;;5031966;28;20127;-85
2021/10/24 03:48:24;;;;;;;5.30;2.87;;;6.60;64.80;;;;;;5050931;28;20120;-85
2021/10/24 03:50:49;;;;;;;6.63;3.00;;;6.60;64.60;;;;;;5034065;28;20848;-84
2021/10/24 03:53:17;;;;;;;6.70;3.37;;;6.60;64.70;;;;;;5034263;28;20115;-84
2021/10/24 03:55:42;;;;;;;3.40;2.30;;;6.60;64.70;;;;;;5051061;28;20661;-85
2021/10/24 03:58:08;;;;;;;6.47;2.53;;;6.60;64.60;;;;;;5029678;28;20022;-85
2021/10/24 04:00:34;;;;;;;6.53;3.63;;;6.60;64.70;;;;;;5049639;28;20116;-85
2021/10/24 04:03:02;;;;;;;7.70;3.43;;;6.50;64.90;;;;;;5050243;28;20475;-87
2021/10/24 04:05:28;;;;;;;4.97;2.43;;;6.50;64.90;;;;;;5035210;28;20075;-85
2021/10/24 04:07:56;;;;;;;7.70;2.40;;;6.50;65.00;;;;;;5033571;28;20036;-85
2021/10/24 04:10:24;;;;;;;5.97;3.27;;;6.50;65.00;;;;;;5031623;28;20471;-85
2021/10/24 04:12:50;;;;;;;7.37;4.00;;;6.40;64.90;;;;;;5026973;28;20124;-85
2021/10/24 04:15:17;;;;;;;5.50;2.50;;;6.40;65.20;;;;;;5028897;28;20029;-85
2021/10/24 04:17:43;;;;;;;7.97;3.23;;;6.40;65.30;;;;;;5031619;28;20094;-85
2021/10/24 04:20:15;;;;;;;6.30;4.17;;;6.50;65.10;;;;;;5042423;28;20028;-85
2021/10/24 04:22:41;;;;;;;5.77;3.77;;;6.40;65.10;;;;;;5047048;28;20037;-86
2021/10/24 04:25:09;;;;;;;7.13;4.23;;;6.40;65.00;;;;;;5034532;28;20040;-86
2021/10/24 04:27:35;;;;;;;6.53;4.30;;;6.40;65.00;;;;;;5018168;28;20407;-86
2021/10/24 04:30:04;;;;;;;9.10;4.20;;;6.30;65.20;;;;;;5024432;28;20557;-85
2021/10/24 04:32:29;;;;;;;10.37;4.00;;;6.30;65.30;;;;;;5029708;28;20120;-84
2021/10/24 04:34:55;;;;;;;6.73;3.20;;;6.20;65.50;;;;;;5029195;28;20112;-85
2021/10/24 04:37:21;;;;;;;7.27;3.00;;;6.20;65.80;;;;;;5039089;28;20489;-86
2021/10/24 04:39:47;;;;;;;4.27;2.60;;;6.20;65.80;;;;;;5033782;28;20089;-85
2021/10/24 04:42:12;;;;;;;7.60;3.10;;;6.10;65.90;;;;;;5031950;28;20544;-86
2021/10/24 04:44:38;;;;;;;5.17;2.83;;;6.10;65.90;;;;;;5030878;28;20044;-86
2021/10/24 04:47:04;;;;;;;7.63;4.07;;;6.20;66.00;;;;;;5034076;28;20029;-86
2021/10/24 04:49:31;;;;;;;5.03;3.30;;;6.20;65.90;;;;;;5030903;28;20033;-86
2021/10/24 04:51:57;;;;;;;5.90;3.40;;;6.20;65.90;;;;;;5034023;28;20139;-86
2021/10/24 04:54:23;;;;;;;7.23;3.37;;;6.20;65.80;;;;;;5032773;28;20117;-86
2021/10/24 04:56:53;;;;;;;10.30;3.80;;;6.20;65.50;;;;;;5038251;28;20590;-85
2021/10/24 04:59:19;;;;;;;7.33;3.20;;;6.30;65.50;;;;;;5032783;28;20108;-85
2021/10/24 05:01:47;;;;;;;5.33;3.53;;;6.20;65.50;;;;;;5031411;28;20498;-86
2021/10/24 05:04:12;;;;;;;10.90;4.00;;;6.20;65.50;;;;;;5038030;28;20115;-84
2021/10/24 05:06:39;;;;;;;8.17;4.33;;;6.20;65.30;;;;;;5027351;28;20506;-86
2021/10/24 05:09:05;;;;;;;5.03;3.53;;;6.20;65.30;;;;;;5028309;28;20032;-86
2021/10/24 05:11:31;;;;;;;8.33;3.67;;;6.20;65.50;;;;;;5031851;28;20021;-86
2021/10/24 05:13:58;;;;;;;16.90;9.67;;;6.10;65.50;;;;;;5037425;28;20487;-86
2021/10/24 05:16:24;;;;;;;14.83;8.17;;;6.10;65.60;;;;;;5051390;28;20116;-86
2021/10/24 05:18:49;;;;;;;10.97;6.40;;;6.00;65.60;;;;;;5031409;28;20183;-85
2021/10/24 05:21:15;;;;;;;16.27;6.00;;;6.00;65.70;;;;;;5054550;28;20033;-86
2021/10/24 05:23:41;;;;;;;11.10;6.10;;;5.90;65.80;;;;;;5035379;28;20032;-86
2021/10/24 05:26:07;;;;;;;10.63;5.93;;;5.90;66.00;;;;;;5032853;28;20049;-85
2021/10/24 05:28:33;;;;;;;11.17;6.30;;;5.90;66.30;;;;;;5032065;28;20035;-85
2021/10/24 05:30:59;;;;;;;12.50;8.57;;;5.90;66.30;;;;;;5036800;28;20053;-86
2021/10/24 05:33:25;;;;;;;14.33;9.03;;;6.00;66.20;;;;;;5042480;28;20025;-85
2021/10/24 05:35:53;;;;;;;12.00;6.87;;;6.00;65.90;;;;;;5033507;28;20029;-86
2021/10/24 05:38:20;;;;;;;10.50;6.67;;;6.00;65.80;;;;;;5036601;28;20071;-86
2021/10/24 05:40:46;;;;;;;12.13;6.37;;;6.00;65.70;;;;;;5029767;28;20032;-86
2021/10/24 05:43:12;;;;;;;11.63;5.70;;;6.00;65.70;;;;;;5033158;28;20021;-86
2021/10/24 05:45:40;;;;;;;8.33;5.13;;;5.90;65.60;;;;;;5033941;28;20085;-86
2021/10/24 05:48:06;;;;;;;20.90;6.40;;;5.80;66.10;;;;;;5049651;28;20120;-86
2021/10/24 05:50:31;;;;;;;18.57;6.20;;;5.90;66.10;;;;;;5037690;28;20107;-85
2021/10/24 05:52:57;;;;;;;12.33;6.30;;;5.90;66.00;;;;;;5027451;28;20451;-85
2021/10/24 05:55:23;;;;;;;11.60;5.77;;;5.80;66.00;;;;;;5037357;28;20025;-85
2021/10/24 05:57:49;;;;;;;10.33;5.23;;;5.80;66.10;;;;;;5034564;28;20059;-85
2021/10/24 06:00:15;;;;;;;9.33;5.50;;;5.80;66.20;;;;;;5038702;28;20025;-85
2021/10/24 06:02:40;;;;;;;11.47;5.17;;;5.90;66.20;;;;;;5038750;28;20032;-86
2021/10/24 06:05:06;;;;;;;11.67;6.30;;;5.90;66.00;;;;;;5032040;28;20112;-86
2021/10/24 06:07:33;;;;;;;16.80;7.27;;;5.90;66.00;;;;;;5035599;28;20029;-86
2021/10/24 06:10:12;;;;;;;16.10;6.73;;;5.90;66.10;;;;;;5034982;28;20032;-86
2021/10/24 06:15:06;;;;;;;11.93;6.20;;;5.80;65.60;;;;;;5053961;28;20021;-85
2021/10/24 06:17:31;;;;;;;11.73;5.97;;;5.70;66.20;;;;;;5035326;28;20027;-86
2021/10/24 06:19:57;;;;;;;18.80;8.10;;;5.70;66.50;;;;;;5037182;28;20495;-85
2021/10/24 06:22:23;;;;;;;14.80;8.00;;;5.80;66.50;;;;;;5037818;28;20542;-86
2021/10/24 06:24:49;;;;;;;20.07;10.57;;;5.80;66.30;;;;;;5053259;28;20103;-86
2021/10/24 06:27:15;;;;;;;28.30;14.47;;;5.80;66.20;;;;;;5034968;28;20082;-85
2021/10/24 06:29:41;;;;;;;19.83;10.77;;;5.80;66.30;;;;;;5054961;28;20398;-85
2021/10/24 06:32:06;;;;;;;19.50;9.33;;;5.80;66.30;;;;;;5034163;28;20041;-85
2021/10/24 06:34:32;;;;;;;16.33;7.73;;;5.90;66.30;;;;;;5050254;28;20021;-86
2021/10/24 06:36:58;;;;;;;13.03;8.00;;;5.90;66.30;;;;;;5035804;28;20032;-85
2021/10/24 06:39:24;;;;;;;16.53;8.80;;;5.90;66.30;;;;;;5034242;28;20033;-86
2021/10/24 06:41:50;;;;;;;21.33;13.47;;;5.80;66.40;;;;;;5051417;28;20112;-85
2021/10/24 06:44:16;;;;;;;19.40;10.20;;;5.80;66.90;;;;;;5033174;28;20120;-85
2021/10/24 06:46:42;;;;;;;10.77;6.87;;;5.80;66.80;;;;;;5047157;28;20033;-86
2021/10/24 06:49:07;;;;;;;12.50;7.23;;;5.80;66.70;;;;;;5041657;28;20385;-86
2021/10/24 06:51:33;;;;;;;13.23;6.90;;;5.80;66.90;;;;;;5033879;28;20029;-86
2021/10/24 06:54:00;;;;;;;12.33;7.87;;;5.80;66.90;;;;;;5034648;28;20029;-86
2021/10/24 06:56:25;;;;;;;22.50;13.60;;;5.90;66.90;;;;;;5033131;28;20668;-86
2021/10/24 06:58:51;;;;;;;16.43;9.27;;;5.90;66.90;;;;;;5035781;28;20021;-86
2021/10/24 07:01:17;;;;;;;13.30;8.03;;;5.90;66.70;;;;;;5033084;28;20029;-86
2021/10/24 07:03:43;;;;;;;16.37;9.37;;;5.90;66.60;;;;;;5025126;28;20055;-86
2021/10/24 07:06:08;;;;;;;16.37;9.87;;;6.00;66.60;;;;;;5032377;28;20460;-87
2021/10/24 07:08:34;;;;;;;14.77;9.80;;;6.00;66.50;;;;;;5032893;28;20033;-86
2021/10/24 07:11:00;;;;;;;17.23;10.93;;;5.90;66.80;;;;;;5032496;28;20143;-87
2021/10/24 07:13:26;;;;;;;13.90;9.60;;;5.90;67.00;;;;;;5054327;28;20843;-87
2021/10/24 07:15:52;;;;;;;9.60;7.30;;;6.00;66.80;;;;;;5032459;28;20036;-87
2021/10/24 07:18:18;;;;;;;13.30;7.40;;;6.00;66.60;;;;;;5045157;28;20029;-87
2021/10/24 07:20:44;;;;;;;39.30;15.37;;;6.00;66.60;;;;;;5032641;28;20025;-87
2021/10/24 07:23:10;;;;;;;12.70;6.60;;;6.00;66.50;;;;;;5052204;28;20045;-86
2021/10/24 07:25:36;;;;;;;13.33;6.83;;;6.00;66.50;;;;;;5032943;28;20029;-86
2021/10/24 07:28:02;;;;;;;12.07;7.67;;;6.00;66.50;;;;;;5039059;28;20569;-86
2021/10/24 07:30:27;;;;;;;10.20;7.00;;;6.00;66.40;;;;;;5043893;28;20139;-87
2021/10/24 07:32:53;;;;;;;13.13;6.97;;;6.10;66.40;;;;;;5039162;28;20035;-86
2021/10/24 07:35:20;;;;;;;9.10;5.47;;;6.00;66.60;;;;;;5034420;28;20028;-87
2021/10/24 07:37:46;;;;;;;10.17;6.57;;;6.10;66.80;;;;;;5034685;28;20025;-86
2021/10/24 07:40:12;;;;;;;8.53;6.60;;;6.10;66.60;;;;;;5051135;28;20067;-86
2021/10/24 07:42:39;;;;;;;12.00;6.53;;;6.10;67.40;;;;;;5028379;28;20488;-86
2021/10/24 07:45:06;;;;;;;12.37;8.23;;;6.20;67.00;;;;;;5032291;28;20033;-87
2021/10/24 07:47:32;;;;;;;8.73;5.40;;;6.30;66.90;;;;;;5045153;28;20028;-87
2021/10/24 07:49:59;;;;;;;8.30;4.43;;;6.40;67.20;;;;;;5052456;28;20021;-86
2021/10/24 07:52:25;;;;;;;6.97;5.00;;;6.40;67.00;;;;;;5034785;28;20032;-86
2021/10/24 07:54:51;;;;;;;9.73;5.20;;;6.50;67.00;;;;;;5050363;28;20021;-86
2021/10/24 07:57:18;;;;;;;11.50;5.47;;;6.60;66.90;;;;;;5052150;28;20025;-86
2021/10/24 07:59:43;;;;;;;9.63;4.17;;;6.70;66.90;;;;;;5032703;28;20606;-87
2021/10/24 08:02:10;;;;;;;9.50;4.30;;;6.70;66.80;;;;;;5025712;28;20124;-86
2021/10/24 08:04:35;;;;;;;8.57;3.97;;;6.80;66.80;;;;;;5050625;28;20384;-86
2021/10/24 08:07:05;;;;;;;10.17;4.17;;;6.80;66.70;;;;;;5030493;28;20033;-89
2021/10/24 08:09:32;;;;;;;9.30;3.60;;;6.80;66.70;;;;;;5033674;28;20029;-89
2021/10/24 08:11:58;;;;;;;8.07;3.87;;;6.90;67.00;;;;;;5032567;28;20033;-86
2021/10/24 08:14:24;;;;;;;7.70;4.03;;;6.90;67.10;;;;;;5032959;28;20032;-87
2021/10/24 08:16:50;;;;;;;6.20;3.73;;;7.10;66.90;;;;;;5046618;28;20022;-86
2021/10/24 08:19:17;;;;;;;6.20;4.00;;;7.60;65.70;;;;;;5036297;28;20021;-87
2021/10/24 08:21:43;;;;;;;9.23;3.80;;;10.50;59.60;;;;;;5031292;28;20412;-85
2021/10/24 08:24:08;;;;;;;4.45;2.40;;;14.70;51.30;;;;;;5033562;28;20083;-85
2021/10/24 08:26:35;;;;;;;8.95;3.88;;;17.30;46.70;;;;;;5035371;28;20029;-85
2021/10/24 08:29:02;;;;;;;7.22;3.80;;;17.60;47.50;;;;;;5050928;28;20036;-85
2021/10/24 08:31:29;;;;;;;10.15;4.80;;;17.20;49.80;;;;;;5031928;28;20052;-86
2021/10/24 08:33:59;;;;;;;13.65;3.80;;;16.80;51.10;;;;;;5041321;28;20384;-86
2021/10/24 08:36:26;;;;;;;9.60;7.18;;;16.20;51.60;;;;;;5050981;28;20021;-85
2021/10/24 08:38:53;;;;;;;6.95;5.20;;;15.10;52.10;;;;;;5034206;28;20024;-85
2021/10/24 08:41:27;;;;;;;9.73;5.60;;;14.20;53.30;;;;;;5038127;28;20051;-85
2021/10/24 08:43:55;;;;;;;12.57;7.88;;;13.60;54.30;;;;;;5032684;28;20036;-85
2021/10/24 08:46:22;;;;;;;8.27;5.45;;;13.00;54.80;;;;;;5032630;28;20029;-85
2021/10/24 08:48:48;;;;;;;6.65;4.20;;;12.60;55.30;;;;;;5032284;28;20484;-85
2021/10/24 08:51:16;;;;;;;9.38;4.07;;;12.40;55.10;;;;;;5034555;28;20031;-85
2021/10/24 08:53:49;;;;;;;6.57;3.97;;;12.20;54.90;;;;;;5033393;28;20111;-85
2021/10/24 08:56:17;;;;;;;6.10;3.85;;;12.20;54.90;;;;;;5052168;28;20025;-85
2021/10/24 08:58:44;;;;;;;7.37;4.53;;;12.20;55.00;;;;;;5030046;28;20032;-84
2021/10/24 09:01:10;;;;;;;7.47;3.50;;;12.40;54.90;;;;;;5050149;28;20052;-85
2021/10/24 09:03:37;;;;;;;6.17;4.40;;;12.60;54.10;;;;;;5037796;28;20557;-86
2021/10/24 09:06:05;;;;;;;8.10;3.57;;;12.70;53.40;;;;;;5051624;28;20068;-85
2021/10/24 09:08:31;;;;;;;9.55;4.40;;;12.80;53.30;;;;;;5049124;28;20021;-85
2021/10/24 09:10:59;;;;;;;7.25;4.30;;;13.10;53.30;;;;;;5033819;28;20029;-86
2021/10/24 09:13:27;;;;;;;6.80;3.40;;;13.30;53.50;;;;;;5033937;28;20017;-86
2021/10/24 09:16:08;;;;;;;4.75;3.60;;;13.70;54.00;;;;;;5029112;28;20396;-86
2021/10/24 09:18:37;;;;;;;5.20;3.10;;;14.10;52.90;;;;;;5030476;28;20025;-86
2021/10/24 09:21:15;;;;;;;7.13;2.88;;;14.30;52.70;;;;;;5033091;28;20033;-86
2021/10/24 09:23:50;;;;;;;5.78;3.33;;;14.20;51.10;;;;;;5032275;28;20064;-87
2021/10/24 09:26:26;;;;;;;5.15;3.60;;;14.30;50.70;;;;;;5033269;28;20044;-87
2021/10/24 09:28:58;;;;;;;5.78;3.13;;;14.40;50.20;;;;;;5033557;28;20017;-86
2021/10/24 09:31:50;;;;;;;7.80;3.07;;;14.40;49.70;;;;;;5050940;28;20037;-86
2021/10/24 09:34:26;;;;;;;3.30;2.60;;;14.50;49.50;;;;;;5044535;28;20029;-86
2021/10/24 09:36:57;;;;;;;3.35;2.30;;;14.50;49.30;;;;;;5034670;28;20036;-87
2021/10/24 09:39:30;;;;;;;3.67;2.35;;;14.50;49.00;;;;;;5048312;28;20028;-89
2021/10/24 09:42:19;;;;;;;3.75;2.42;;;14.60;48.70;;;;;;5034289;28;20444;-87
2021/10/24 09:45:05;;;;;;;2.92;1.92;;;14.70;48.10;;;;;;5033334;28;20033;-88
2021/10/24 09:47:38;;;;;;;7.63;2.13;;;14.80;47.90;;;;;;5033921;28;20025;-87
2021/10/24 09:50:06;;;;;;;4.65;2.17;;;14.80;47.40;;;;;;5041038;28;20089;-87
2021/10/24 09:52:34;;;;;;;3.35;2.22;;;14.70;47.40;;;;;;5035850;28;20471;-87
2021/10/24 09:55:00;;;;;;;4.82;2.35;;;14.80;47.50;;;;;;5032720;28;20025;-88
2021/10/24 09:57:27;;;;;;;3.67;2.15;;;14.80;47.50;;;;;;5046166;28;20090;-86
2021/10/24 09:59:54;;;;;;;2.55;1.73;;;14.80;47.20;;;;;;5037056;28;20537;-88
2021/10/24 10:02:21;;;;;;;7.03;2.35;;;14.90;46.80;;;;;;5035144;28;20028;-87
2021/10/24 10:04:47;;;;;;;3.70;2.22;;;14.90;46.80;;;;;;5038075;28;20543;-86
2021/10/24 10:07:21;;;;;;;4.15;2.25;;;15.10;46.80;;;;;;5037832;28;20033;-86
2021/10/24 10:09:46;;;;;;;3.10;2.00;;;15.20;46.10;;;;;;5037528;28;20158;-87
2021/10/24 10:12:17;;;;;;;4.30;2.10;;;15.30;46.00;;;;;;5026555;28;20120;-87
2021/10/24 10:14:45;;;;;;;3.03;1.45;;;15.50;45.80;;;;;;5056850;28;20468;-87
2021/10/24 10:17:19;;;;;;;2.75;1.70;;;15.50;45.20;;;;;;5033466;28;20439;-86
2021/10/24 10:19:46;;;;;;;3.95;2.05;;;15.50;45.10;;;;;;5051182;28;20021;-87
2021/10/24 10:22:21;;;;;;;3.08;1.95;;;15.50;45.30;;;;;;5038956;28;20024;-85
2021/10/24 10:25:08;;;;;;;3.22;1.67;;;15.70;44.90;;;;;;5037453;28;20025;-86
2021/10/24 10:27:38;;;;;;;2.63;1.75;;;15.80;44.10;;;;;;5047212;28;20036;-86
2021/10/24 10:30:13;;;;;;;3.40;2.05;;;15.50;44.00;;;;;;5056564;28;20040;-86
2021/10/24 10:32:51;;;;;;;6.63;1.98;;;15.60;44.40;;;;;;5035944;28;20033;-86
2021/10/24 10:35:25;;;;;;;3.05;1.50;;;15.60;43.60;;;;;;5034587;28;20109;-86
2021/10/24 10:37:52;;;;;;;3.30;1.60;;;15.50;43.40;;;;;;5034627;28;20033;-86
2021/10/24 10:40:26;;;;;;;5.32;1.60;;;15.50;43.30;;;;;;5055204;28;20066;-87
2021/10/24 10:42:54;;;;;;;4.35;2.03;;;15.70;43.10;;;;;;5055779;28;20589;-86
2021/10/24 10:45:24;;;;;;;2.60;1.60;;;15.80;43.20;;;;;;5048084;28;20029;-86
2021/10/24 10:47:56;;;;;;;3.97;1.38;;;15.90;42.90;;;;;;5052998;28;20048;-85
2021/10/24 10:50:28;;;;;;;3.75;1.58;;;15.90;43.00;;;;;;5054385;28;20043;-86
2021/10/24 10:52:57;;;;;;;2.58;1.50;;;16.10;42.90;;;;;;5045949;28;20041;-86
2021/10/24 10:55:25;;;;;;;2.50;1.67;;;16.20;42.30;;;;;;5035726;28;20033;-86
2021/10/24 10:57:51;;;;;;;2.10;1.13;;;16.10;41.90;;;;;;5034916;28;20025;-86
2021/10/24 11:00:37;;;;;;;3.25;1.77;;;16.00;41.70;;;;;;5037895;28;20021;-86
2021/10/24 11:03:04;;;;;;;2.55;1.38;;;16.10;41.10;;;;;;5034339;28;20476;-86
2021/10/24 11:05:40;;;;;;;2.67;1.70;;;16.00;41.10;;;;;;5035845;28;20021;-86
2021/10/24 11:08:44;;;;;;;1.40;1.20;;;16.10;41.10;;;;;;5033484;28;20029;-85
2021/10/24 11:11:10;;;;;;;2.42;1.30;;;16.20;40.30;;;;;;5049446;28;20032;-86
2021/10/24 11:13:37;;;;;;;1.92;1.05;;;16.20;40.30;;;;;;5052119;28;20027;-87
2021/10/24 11:16:48;;;;;;;2.15;1.00;;;16.20;39.70;;;;;;5054382;28;20571;-86
2021/10/24 11:21:52;;;;;;;2.50;2.22;;;16.10;38.90;;;;;;5053727;28;20033;-85
2021/10/24 11:24:19;;;;;;;2.15;1.05;;;16.20;39.50;;;;;;5034754;28;20044;-86
2021/10/24 11:26:53;;;;;;;1.55;0.85;;;16.30;39.30;;;;;;5040488;28;20051;-85
2021/10/24 11:29:18;;;;;;;1.52;0.98;;;16.40;39.00;;;;;;5046939;28;20033;-85
2021/10/24 11:31:44;;;;;;;3.17;0.98;;;16.50;39.30;;;;;;5039557;28;20136;-85
2021/10/24 11:34:10;;;;;;;1.40;0.77;;;16.50;38.90;;;;;;5041076;28;20021;-85
2021/10/24 11:36:44;;;;;;;1.15;0.90;;;16.40;38.60;;;;;;5035336;28;20119;-86
2021/10/24 11:39:10;;;;;;;1.25;0.82;;;16.50;38.70;;;;;;5041548;28;20120;-85
2021/10/24 11:41:35;;;;;;;1.60;0.90;;;16.50;38.60;;;;;;5051331;28;20120;-85
2021/10/24 11:44:11;;;;;;;3.00;0.85;;;16.50;38.70;;;;;;5026739;28;20025;-86
2021/10/24 11:46:37;;;;;;;2.17;1.25;;;16.70;38.40;;;;;;5035202;28;20025;-86
2021/10/24 11:49:04;;;;;;;2.22;1.10;;;16.70;38.50;;;;;;5034679;28;20039;-86
2021/10/24 11:51:34;;;;;;;3.63;1.52;;;16.80;38.50;;;;;;5034907;28;20043;-86
2021/10/24 11:54:00;;;;;;;2.40;1.10;;;16.80;38.50;;;;;;5045308;28;20017;-86
2021/10/24 12:01:34;;;;;;;3.15;1.50;;;16.90;38.80;;;;;;5052647;28;20551;-86
2021/10/24 12:04:06;;;;;;;2.65;1.52;;;16.90;38.80;;;;;;5041336;28;20074;-86
2021/10/24 12:07:04;;;;;;;3.13;1.63;;;16.90;38.90;;;;;;5031618;28;20029;-86
2021/10/24 12:09:36;;;;;;;4.80;1.63;;;17.10;38.80;;;;;;5047218;28;20112;-86
2021/10/24 12:12:20;;;;;;;3.45;2.00;;;17.00;39.00;;;;;;5032990;28;20017;-86
2021/10/24 12:14:47;;;;;;;3.05;1.80;;;17.00;39.10;;;;;;5029356;28;20735;-86
2021/10/24 12:17:20;;;;;;;3.88;1.45;;;17.00;39.30;;;;;;5034903;28;20023;-86
2021/10/24 12:19:46;;;;;;;2.08;1.58;;;17.10;39.30;;;;;;5038241;28;20028;-86
2021/10/24 12:22:12;;;;;;;2.38;1.35;;;17.10;39.30;;;;;;5033756;28;20571;-85
2021/10/24 12:24:48;;;;;;;2.92;1.38;;;17.20;39.20;;;;;;5033195;28;20446;-86
2021/10/24 12:27:22;;;;;;;4.18;1.63;;;17.20;39.10;;;;;;5030773;28;20041;-86
2021/10/24 12:30:07;;;;;;;2.95;1.50;;;17.20;38.70;;;;;;5032776;28;20025;-86
2021/10/24 12:32:33;;;;;;;2.22;1.33;;;17.20;39.00;;;;;;5026590;28;20040;-86
2021/10/24 12:35:05;;;;;;;1.92;1.30;;;17.30;38.90;;;;;;5033431;28;20379;-86
2021/10/24 12:37:32;;;;;;;4.43;1.25;;;17.30;38.70;;;;;;5028958;28;20025;-86
2021/10/24 12:40:21;;;;;;;2.60;1.40;;;17.30;38.70;;;;;;5036529;28;20032;-86
2021/10/24 12:43:10;;;;;;;2.65;1.20;;;17.30;38.30;;;;;;5034808;28;20124;-86
2021/10/24 12:45:50;;;;;;;3.47;1.90;;;17.40;38.50;;;;;;5060804;28;20399;-85
2021/10/24 12:48:16;;;;;;;2.00;1.30;;;17.40;38.40;;;;;;5034637;28;20033;-86
2021/10/24 12:50:42;;;;;;;3.17;1.15;;;17.40;38.40;;;;;;5047672;28;20040;-86
2021/10/24 12:53:17;;;;;;;2.15;0.90;;;17.50;38.10;;;;;;5032820;28;20033;-86
2021/10/24 12:56:00;;;;;;;3.75;1.27;;;17.50;37.80;;;;;;5032771;28;20033;-86
2021/10/24 12:58:25;;;;;;;2.13;1.10;;;17.50;37.80;;;;;;5034776;28;20082;-86
2021/10/24 13:00:52;;;;;;;2.70;1.30;;;17.50;37.80;;;;;;5033699;28;20112;-86
2021/10/24 13:03:17;;;;;;;2.28;1.10;;;17.50;37.50;;;;;;5032490;28;20033;-86
2021/10/24 13:05:43;;;;;;;2.50;1.02;;;17.50;37.30;;;;;;5034761;28;20032;-87